Time;durP1;ratioP1;P1;durP2;ratioP2;P2;SDS_P1;SDS_P2;PMS_P1;PMS_P2;Temp;Humidity;BMP_temperature;BMP_pressure;BME280_temperature;BME280_humidity;BME280_pressure;Samples;Min_cycle;Max_cycle;Signal;HPM_P1;HPM_P2
2021/10/28 00:22:09;;;;;;;28.65;12.32;;;9.60;99.90;;;;;;6762282;88;20193;-76
2021/10/28 00:32:10;;;;;;;32.80;13.48;;;9.70;99.90;;;;;;6760363;88;20195;-77
2021/10/28 00:42:11;;;;;;;31.23;12.80;;;9.80;99.90;;;;;;6763939;87;20200;-76
2021/10/28 00:52:12;;;;;;;35.28;13.57;;;10.00;99.90;;;;;;6763395;88;20327;-76
2021/10/28 01:02:14;;;;;;;33.28;13.25;;;9.90;99.90;;;;;;6764274;88;20216;-76
2021/10/28 01:12:14;;;;;;;34.25;15.10;;;9.90;99.90;;;;;;6758805;88;20774;-76
2021/10/28 01:22:15;;;;;;;35.60;14.80;;;10.00;99.90;;;;;;6753842;88;20177;-76
2021/10/28 01:32:16;;;;;;;33.00;14.60;;;10.10;99.90;;;;;;6758539;88;20196;-74
2021/10/28 01:42:17;;;;;;;32.75;14.38;;;10.20;99.90;;;;;;6759572;87;21010;-76
2021/10/28 01:52:18;;;;;;;34.97;15.60;;;10.30;99.90;;;;;;6759570;88;20188;-75
2021/10/28 02:02:18;;;;;;;34.60;15.05;;;10.20;99.90;;;;;;6758474;88;20763;-75
2021/10/28 02:12:19;;;;;;;35.08;15.68;;;10.20;99.90;;;;;;6756308;88;20711;-77
2021/10/28 02:22:20;;;;;;;35.47;16.05;;;10.20;99.90;;;;;;6756611;88;20831;-76
2021/10/28 02:32:20;;;;;;;33.67;15.13;;;10.10;99.90;;;;;;6759569;88;20201;-75
2021/10/28 02:42:21;;;;;;;33.70;15.63;;;10.10;99.90;;;;;;6753861;87;20204;-77
2021/10/28 02:52:22;;;;;;;37.60;15.75;;;10.10;99.90;;;;;;6749044;88;20201;-75
2021/10/28 03:02:24;;;;;;;35.90;15.50;;;10.10;99.90;;;;;;6751318;88;20211;-79
2021/10/28 03:12:24;;;;;;;36.20;15.98;;;10.00;99.90;;;;;;6757370;88;20179;-75
2021/10/28 03:32:44;;;;;;;34.53;15.13;;;9.90;99.90;;;;;;6748676;88;20176;-74
2021/10/28 03:43:17;;;;;;;31.33;14.82;;;9.80;99.90;;;;;;6748331;87;20226;-74
2021/10/28 04:34:11;;;;;;;38.08;14.10;;;9.40;99.90;;;;;;6732440;88;20683;-74
2021/10/28 04:44:12;;;;;;;32.88;14.05;;;9.40;99.90;;;;;;6732666;88;20216;-74
2021/10/28 04:54:12;;;;;;;35.88;14.68;;;9.20;99.90;;;;;;6729695;88;20316;-74
2021/10/28 05:04:13;;;;;;;38.05;14.98;;;9.10;99.90;;;;;;6733136;88;20250;-74
2021/10/28 05:14:13;;;;;;;44.25;16.08;;;9.10;99.90;;;;;;6733496;88;20742;-73
2021/10/28 05:24:14;;;;;;;50.95;17.50;;;9.00;99.90;;;;;;6734102;88;20441;-74
2021/10/28 05:34:15;;;;;;;51.67;18.17;;;9.00;99.90;;;;;;6732685;88;20232;-74
2021/10/28 05:44:16;;;;;;;47.25;17.77;;;9.00;99.90;;;;;;6732667;88;20777;-74
2021/10/28 05:54:17;;;;;;;44.60;16.33;;;9.00;99.90;;;;;;6734252;88;20180;-75
2021/10/28 06:04:17;;;;;;;45.80;15.15;;;8.90;99.90;;;;;;6736823;88;21043;-75
2021/10/28 06:14:23;;;;;;;42.10;15.48;;;8.80;99.90;;;;;;6747050;88;20974;-74
2021/10/28 06:24:23;;;;;;;42.57;14.80;;;8.80;99.90;;;;;;6733513;88;20237;-76
2021/10/28 06:34:27;;;;;;;42.55;14.85;;;8.90;99.90;;;;;;6748987;88;20189;-74
2021/10/28 06:44:28;;;;;;;16.12;6.22;;;8.90;99.90;;;;;;6751871;88;20257;-77
2021/10/28 06:54:32;;;;;;;36.08;15.02;;;8.90;99.90;;;;;;6737398;88;20238;-78
2021/10/28 07:04:33;;;;;;;29.65;11.27;;;8.90;99.90;;;;;;6729696;88;20727;-76
2021/10/28 07:14:34;;;;;;;31.30;11.55;;;8.80;99.90;;;;;;6733805;88;20299;-75
2021/10/28 07:24:54;;;;;;;27.10;11.80;;;8.80;99.90;;;;;;6735490;88;20197;-74
2021/10/28 08:36:26;;;;;;;23.48;9.95;;;9.60;99.90;;;;;;6665326;89;20164;-75
2021/10/28 08:46:28;;;;;;;25.50;12.15;;;10.00;99.90;;;;;;6685888;88;20344;-75
2021/10/28 08:56:44;;;;;;;22.02;11.48;;;9.90;99.90;;;;;;6756029;88;20251;-75
2021/10/28 09:27:42;;;;;;;21.58;10.70;;;11.20;99.90;;;;;;6751703;88;20189;-76
2021/10/28 09:58:41;;;;;;;23.20;10.47;;;12.20;99.90;;;;;;6752252;88;20769;-76
2021/10/28 10:08:42;;;;;;;16.40;8.80;;;12.60;99.90;;;;;;6753291;88;20192;-76
2021/10/28 10:18:48;;;;;;;18.33;10.03;;;12.40;99.90;;;;;;6754753;88;20199;-76
2021/10/28 11:32:05;;;;;;;16.20;9.52;;;14.30;99.90;;;;;;6750496;88;20168;-77
2021/10/28 13:36:09;;;;;;;12.85;7.75;;;17.10;99.90;;;;;;6750715;88;20184;-78
2021/10/28 14:18:01;;;;;;;12.93;7.72;;;17.40;99.90;;;;;;6749874;88;20172;-77
2021/10/28 15:29:05;;;;;;;17.73;9.90;;;14.20;99.90;;;;;;6760330;88;20172;-77
2021/10/28 16:30:26;;;;;;;26.25;13.27;;;11.80;99.90;;;;;;6757803;88;20286;-77
2021/10/28 16:40:28;;;;;;;23.12;12.60;;;11.40;99.90;;;;;;6757212;88;20297;-75
2021/10/28 16:50:28;;;;;;;26.70;14.02;;;11.20;99.90;;;;;;6754632;88;20188;-77
2021/10/28 17:00:29;;;;;;;26.60;11.80;;;11.00;99.90;;;;;;6759611;88;20219;-78
2021/10/28 17:10:30;;;;;;;28.83;13.20;;;10.80;99.90;;;;;;6758999;87;20672;-76
2021/10/28 17:20:35;;;;;;;29.75;14.57;;;10.60;99.90;;;;;;6748696;87;20215;-76
2021/10/28 17:30:36;;;;;;;26.90;13.35;;;10.50;99.90;;;;;;6749009;88;20789;-75
2021/10/28 17:40:37;;;;;;;28.20;13.48;;;10.40;99.90;;;;;;6747689;88;20338;-75
2021/10/28 17:50:38;;;;;;;28.08;13.93;;;10.20;99.90;;;;;;6751838;88;20341;-75
2021/10/28 18:00:40;;;;;;;26.75;13.68;;;10.00;99.90;;;;;;6748124;88;21066;-75
2021/10/28 18:10:40;;;;;;;22.58;11.35;;;9.90;99.90;;;;;;6748095;88;20185;-76
2021/10/28 18:20:41;;;;;;;27.27;13.85;;;9.80;99.90;;;;;;6750594;88;20228;-76
2021/10/28 18:30:41;;;;;;;25.80;13.00;;;9.70;99.90;;;;;;6752872;88;20181;-76
2021/10/28 18:40:42;;;;;;;28.23;13.95;;;9.60;99.90;;;;;;6752398;88;20184;-76
2021/10/28 18:50:43;;;;;;;28.98;14.45;;;9.60;99.90;;;;;;6753212;88;20261;-75
2021/10/28 19:00:43;;;;;;;26.98;12.75;;;9.50;99.90;;;;;;6751744;88;20697;-76
2021/10/28 19:10:44;;;;;;;27.05;13.20;;;9.40;99.90;;;;;;6749516;88;20209;-75
2021/10/28 19:20:46;;;;;;;25.55;12.13;;;9.40;99.90;;;;;;6740621;88;20184;-75
2021/10/28 19:30:52;;;;;;;30.65;14.80;;;9.30;99.90;;;;;;6747796;88;20192;-78
2021/10/28 19:50:56;;;;;;;24.12;11.65;;;9.30;99.90;;;;;;6751774;87;20339;-77
2021/10/28 20:01:03;;;;;;;29.73;14.82;;;9.20;99.90;;;;;;6757695;87;20274;-76
2021/10/28 20:21:23;;;;;;;29.30;13.55;;;9.00;99.90;;;;;;6754345;87;20678;-76
2021/10/28 20:31:23;;;;;;;26.52;12.23;;;8.90;99.90;;;;;;6748243;87;20224;-75
2021/10/28 20:41:25;;;;;;;28.17;14.30;;;8.80;99.90;;;;;;6750990;88;20625;-76
2021/10/28 20:51:26;;;;;;;24.45;11.30;;;8.80;99.90;;;;;;6745878;88;20627;-78
2021/10/28 21:01:26;;;;;;;30.37;14.43;;;8.70;99.90;;;;;;6744407;88;20209;-78
2021/10/28 21:11:27;;;;;;;26.55;13.50;;;8.70;99.90;;;;;;6760430;77;20217;-78
2021/10/28 21:21:28;;;;;;;29.27;14.85;;;8.70;99.90;;;;;;6747446;88;20244;-80
2021/10/28 21:31:28;;;;;;;26.23;12.48;;;8.70;99.90;;;;;;6767148;88;20196;-79
2021/10/28 21:41:29;;;;;;;33.10;16.67;;;8.80;99.90;;;;;;6768707;88;20211;-80
2021/10/28 21:51:30;;;;;;;38.35;16.92;;;8.80;99.90;;;;;;6765012;88;20199;-78
2021/10/28 22:32:22;;;;;;;34.90;17.45;;;8.70;99.90;;;;;;6746483;88;20746;-78
2021/10/28 22:42:24;;;;;;;34.97;16.67;;;8.70;99.90;;;;;;6747271;88;20226;-78
2021/10/28 22:52:29;;;;;;;39.13;18.90;;;8.70;99.90;;;;;;6747024;88;20346;-79
2021/10/28 23:02:58;;;;;;;33.63;15.15;;;8.70;99.90;;;;;;6750843;88;20188;-79
2021/10/28 23:23:02;;;;;;;31.83;14.20;;;8.70;99.90;;;;;;6758672;88;20216;-79
2021/10/28 23:33:07;;;;;;;33.10;16.73;;;8.70;99.90;;;;;;6764102;88;20203;-76
2021/10/28 23:43:08;;;;;;;30.90;16.47;;;8.80;99.90;;;;;;6760477;88;20525;-76
2021/10/28 23:53:08;;;;;;;27.55;13.55;;;8.80;99.90;;;;;;6761657;88;20216;-77
